createdAt,value
2018-03-02T00:01:35.685Z,14.40
2018-03-02T00:04:03.964Z,12.57
2018-03-02T00:06:32.240Z,11.70
2018-03-02T00:09:00.508Z,10.97
2018-03-02T00:11:28.015Z,12.53
2018-03-02T00:13:55.575Z,13.37
2018-03-02T00:16:23.344Z,12.70
2018-03-02T00:18:50.715Z,12.60
2018-03-02T00:21:18.216Z,15.60
2018-03-02T00:23:46.454Z,12.47
2018-03-02T00:26:14.084Z,11.37
2018-03-02T00:28:41.816Z,13.60
2018-03-02T00:31:09.359Z,14.73
2018-03-02T00:33:37.092Z,8.90
2018-03-02T00:36:04.672Z,15.60
2018-03-02T00:38:32.335Z,17.93
2018-03-02T00:41:00.103Z,13.50
2018-03-02T00:43:27.572Z,14.47
2018-03-02T00:45:55.876Z,14.23
2018-03-02T00:48:24.275Z,13.27
2018-03-02T00:50:51.978Z,14.00
2018-03-02T00:53:19.494Z,13.87
2018-03-02T00:55:47.006Z,12.60
2018-03-02T00:58:14.511Z,12.93
2018-03-02T01:00:42.010Z,13.57
2018-03-02T01:03:09.874Z,9.20
2018-03-02T01:05:37.405Z,13.53
2018-03-02T01:08:05.220Z,16.17
2018-03-02T01:10:32.710Z,11.27
2018-03-02T01:13:00.187Z,16.20
2018-03-02T01:15:27.675Z,10.77
2018-03-02T01:17:55.285Z,14.40
2018-03-02T01:20:22.759Z,11.60
2018-03-02T01:22:50.288Z,8.87
2018-03-02T01:25:18.682Z,11.50
2018-03-02T01:27:46.420Z,13.93
2018-03-02T01:30:14.267Z,9.93
2018-03-02T01:32:41.768Z,11.17
2018-03-02T01:35:09.281Z,14.20
2018-03-02T01:37:36.897Z,15.70
2018-03-02T01:40:04.438Z,17.67
2018-03-02T01:42:32.711Z,16.07
2018-03-02T01:45:00.206Z,12.27
2018-03-02T01:47:27.886Z,16.03
2018-03-02T01:49:55.412Z,11.27
2018-03-02T01:52:23.675Z,14.90
2018-03-02T01:54:51.201Z,9.53
2018-03-02T01:57:18.725Z,14.40
2018-03-02T01:59:46.364Z,15.37
2018-03-02T02:02:13.999Z,13.30
2018-03-02T02:04:41.497Z,13.30
2018-03-02T02:07:09.034Z,13.00
2018-03-02T02:09:37.312Z,10.80
2018-03-02T02:12:05.695Z,11.30
2018-03-02T02:14:34.341Z,12.50
2018-03-02T02:17:01.847Z,8.80
2018-03-02T02:19:29.493Z,14.10
2018-03-02T02:21:57.781Z,11.80
2018-03-02T02:24:25.724Z,10.20
2018-03-02T02:26:53.211Z,13.07
2018-03-02T02:29:20.690Z,12.63
2018-03-02T02:31:48.360Z,12.27
2018-03-02T02:34:15.845Z,10.27
2018-03-02T02:36:43.395Z,15.50
2018-03-02T02:39:10.904Z,10.60
2018-03-02T02:41:39.592Z,11.67
2018-03-02T02:44:07.073Z,10.80
2018-03-02T02:46:34.590Z,14.73
2018-03-02T02:49:02.118Z,12.17
2018-03-02T02:51:29.687Z,14.87
2018-03-02T02:53:57.169Z,15.63
2018-03-02T02:56:25.455Z,14.13
2018-03-02T02:58:53.007Z,10.90
2018-03-02T03:01:21.585Z,12.33
2018-03-02T03:03:49.068Z,14.80
2018-03-02T03:06:17.301Z,14.70
2018-03-02T03:08:44.944Z,10.97
2018-03-02T03:11:12.543Z,13.37
2018-03-02T03:13:40.067Z,16.37
2018-03-02T03:16:07.556Z,9.97
2018-03-02T03:18:35.027Z,16.20
2018-03-02T03:21:02.548Z,9.23
2018-03-02T03:23:31.000Z,12.80
2018-03-02T03:25:58.487Z,12.70
2018-03-02T03:28:26.030Z,12.07
2018-03-02T03:30:53.538Z,15.07
2018-03-02T03:33:21.189Z,13.43
2018-03-02T03:35:48.703Z,16.40
2018-03-02T03:38:16.229Z,14.67
2018-03-02T03:40:44.531Z,13.23
2018-03-02T03:43:12.647Z,11.10
2018-03-02T03:45:40.117Z,16.77
2018-03-02T03:48:08.388Z,11.50
2018-03-02T03:50:35.950Z,7.40
2018-03-02T03:53:04.303Z,13.70
2018-03-02T03:55:31.791Z,11.77
2018-03-02T03:57:59.383Z,11.07
2018-03-02T04:00:26.904Z,13.83
2018-03-02T04:02:54.421Z,10.37
2018-03-02T04:05:22.126Z,10.80
2018-03-02T04:07:49.652Z,18.23
2018-03-02T04:10:17.284Z,14.40
2018-03-02T04:12:44.760Z,14.37
2018-03-02T04:15:12.254Z,11.73
2018-03-02T04:17:39.938Z,13.60
2018-03-02T04:20:07.397Z,16.90
2018-03-02T04:22:35.001Z,10.67
2018-03-02T04:25:02.497Z,15.80
2018-03-02T04:27:30.809Z,15.93
2018-03-02T04:29:59.128Z,12.50
2018-03-02T04:32:26.656Z,12.13
2018-03-02T04:34:54.890Z,13.53
2018-03-02T04:37:22.381Z,13.57
2018-03-02T04:39:49.901Z,9.10
2018-03-02T04:42:17.356Z,14.93
2018-03-02T04:44:46.251Z,11.73
2018-03-02T04:47:14.013Z,9.53
2018-03-02T04:49:41.548Z,14.57
2018-03-02T04:52:09.204Z,18.07
2018-03-02T04:54:36.692Z,13.60
2018-03-02T04:57:04.368Z,13.90
2018-03-02T04:59:33.212Z,12.60
2018-03-02T05:02:00.728Z,14.80
2018-03-02T05:04:28.377Z,17.83
2018-03-02T05:06:56.643Z,12.67
2018-03-02T05:09:24.172Z,13.33
2018-03-02T05:11:51.801Z,16.50
2018-03-02T05:14:20.080Z,17.80
2018-03-02T05:16:48.387Z,10.20
2018-03-02T05:19:15.919Z,19.17
2018-03-02T05:21:44.243Z,13.70
2018-03-02T05:24:11.751Z,10.90
2018-03-02T05:26:40.089Z,16.67
2018-03-02T05:29:07.800Z,14.77
2018-03-02T05:31:36.064Z,15.30
2018-03-02T05:34:04.430Z,14.97
2018-03-02T05:36:32.939Z,11.37
2018-03-02T05:39:01.234Z,14.77
2018-03-02T05:41:28.719Z,17.53
2018-03-02T05:43:56.202Z,12.30
2018-03-02T05:46:23.696Z,10.63
2018-03-02T05:48:51.285Z,9.87
2018-03-02T05:51:18.798Z,14.30
2018-03-02T05:53:47.046Z,13.50
2018-03-02T05:56:14.541Z,13.27
2018-03-02T05:58:42.146Z,14.57
2018-03-02T06:01:09.612Z,16.23
2018-03-02T06:03:38.098Z,15.90
2018-03-02T06:06:05.586Z,17.30
2018-03-02T06:08:34.343Z,17.37
2018-03-02T06:11:01.842Z,13.40
2018-03-02T06:13:30.229Z,14.20
2018-03-02T06:15:58.540Z,22.30
2018-03-02T06:18:26.034Z,15.33
2018-03-02T06:20:53.559Z,19.10
2018-03-02T06:23:21.071Z,15.23
2018-03-02T06:25:49.345Z,13.83
2018-03-02T06:28:18.141Z,17.43
2018-03-02T06:30:46.372Z,15.57
2018-03-02T06:33:14.870Z,16.57
2018-03-02T06:35:42.383Z,19.00
2018-03-02T06:38:09.875Z,12.90
2018-03-02T06:40:37.481Z,13.20
2018-03-02T06:43:04.999Z,16.30
2018-03-02T06:45:32.489Z,13.03
2018-03-02T06:48:00.752Z,13.00
2018-03-02T06:50:28.308Z,19.57
2018-03-02T06:52:55.974Z,17.23
2018-03-02T06:55:23.461Z,16.67
2018-03-02T06:57:51.381Z,19.70
2018-03-02T07:00:18.945Z,15.10
2018-03-02T07:02:46.447Z,14.60
2018-03-02T07:05:14.128Z,19.27
2018-03-02T07:07:41.615Z,12.40
2018-03-02T07:10:09.110Z,15.87
2018-03-02T07:12:36.759Z,12.70
2018-03-02T07:15:04.252Z,22.73
2018-03-02T07:17:31.900Z,14.43
2018-03-02T07:20:00.151Z,17.80
2018-03-02T07:22:27.626Z,14.63
2018-03-02T07:24:56.008Z,10.67
2018-03-02T07:27:24.272Z,18.93
2018-03-02T07:29:51.891Z,22.23
2018-03-02T07:32:19.551Z,17.43
2018-03-02T07:34:47.126Z,13.40
2018-03-02T07:37:14.686Z,13.60
2018-03-02T07:39:42.188Z,22.47
2018-03-02T07:42:10.529Z,18.33
2018-03-02T07:44:38.003Z,19.47
2018-03-02T07:47:05.479Z,20.87
2018-03-02T07:49:33.832Z,19.50
2018-03-02T07:52:01.420Z,15.97
2018-03-02T07:54:29.705Z,18.03
2018-03-02T07:56:57.952Z,19.20
2018-03-02T07:59:25.473Z,18.50
2018-03-02T08:01:52.976Z,19.67
2018-03-02T08:04:20.502Z,22.77
2018-03-02T08:06:48.099Z,18.17
2018-03-02T08:09:15.575Z,19.73
2018-03-02T08:11:43.880Z,14.90
2018-03-02T08:14:11.343Z,12.80
2018-03-02T08:16:39.417Z,20.43
2018-03-02T08:19:06.894Z,21.73
2018-03-02T08:21:35.450Z,16.47
2018-03-02T08:24:03.303Z,19.33
2018-03-02T08:26:30.909Z,21.13
2018-03-02T08:28:58.408Z,20.70
2018-03-02T08:31:26.747Z,23.47
2018-03-02T08:33:54.237Z,26.23
2018-03-02T08:36:21.762Z,19.80
2018-03-02T08:38:49.243Z,22.27
2018-03-02T08:41:16.769Z,17.03
2018-03-02T08:43:44.264Z,19.97
2018-03-02T08:46:11.976Z,20.30
2018-03-02T08:48:39.514Z,19.00
2018-03-02T08:51:07.763Z,15.40
2018-03-02T08:53:36.061Z,24.13
2018-03-02T08:56:04.288Z,26.50
2018-03-02T08:58:31.923Z,24.40
2018-03-02T09:00:59.406Z,17.67
2018-03-02T09:03:26.904Z,23.27
2018-03-02T09:05:55.231Z,25.67
2018-03-02T09:08:22.740Z,23.70
2018-03-02T09:10:51.054Z,25.90
2018-03-02T09:13:18.676Z,28.30
2018-03-02T09:15:47.100Z,21.27
2018-03-02T09:18:14.912Z,26.87
2018-03-02T09:20:42.741Z,27.50
2018-03-02T09:23:10.250Z,21.40
2018-03-02T09:25:38.519Z,24.83
2018-03-02T09:28:06.028Z,27.10
2018-03-02T09:30:33.538Z,23.50
2018-03-02T09:33:01.977Z,22.17
2018-03-02T09:35:29.730Z,22.07
2018-03-02T09:37:57.316Z,27.10
2018-03-02T09:40:24.950Z,28.33
2018-03-02T09:42:52.473Z,28.97
2018-03-02T09:45:20.727Z,25.20
2018-03-02T09:47:48.237Z,24.20
2018-03-02T09:50:15.734Z,29.93
2018-03-02T09:52:43.225Z,28.77
2018-03-02T09:55:11.530Z,20.93
2018-03-02T09:57:39.816Z,25.20
2018-03-02T10:00:08.274Z,26.10
2018-03-02T10:02:35.818Z,28.50
2018-03-02T10:05:04.210Z,25.83
2018-03-02T10:07:32.544Z,22.03
2018-03-02T10:10:01.058Z,26.30
2018-03-02T10:12:28.637Z,22.67
2018-03-02T10:14:56.480Z,26.30
2018-03-02T10:17:24.739Z,24.87
2018-03-02T10:19:52.212Z,20.03
2018-03-02T10:22:20.508Z,28.70
2018-03-02T10:24:48.823Z,25.40
2018-03-02T10:27:16.367Z,24.90
2018-03-02T10:29:43.845Z,17.60
2018-03-02T10:32:12.280Z,16.53
2018-03-02T10:34:40.520Z,24.53
2018-03-02T10:37:08.004Z,22.03
2018-03-02T10:39:36.344Z,22.67
2018-03-02T10:42:03.854Z,25.87
2018-03-02T10:44:32.376Z,23.93
2018-03-02T10:46:59.998Z,27.53
2018-03-02T10:49:28.223Z,25.70
2018-03-02T10:51:55.889Z,23.57
2018-03-02T10:54:23.388Z,27.53
2018-03-02T10:56:51.652Z,22.97
2018-03-02T10:59:19.196Z,25.00
2018-03-02T11:01:52.289Z,25.03
2018-03-02T11:04:19.768Z,26.60
2018-03-02T11:06:48.099Z,23.20
2018-03-02T11:09:15.572Z,23.77
2018-03-02T11:11:43.137Z,17.00
2018-03-02T11:14:10.861Z,18.70
2018-03-02T11:16:39.679Z,27.00
2018-03-02T11:19:07.178Z,25.30
2018-03-02T11:21:35.423Z,22.00
2018-03-02T11:24:02.946Z,17.77
2018-03-02T11:26:30.583Z,21.97
2018-03-02T11:28:59.014Z,18.43
2018-03-02T11:31:26.477Z,24.77
2018-03-02T11:33:54.877Z,21.70
2018-03-02T11:36:22.532Z,25.90
2018-03-02T11:38:50.314Z,19.07
2018-03-02T11:41:18.041Z,23.60
2018-03-02T11:43:45.497Z,24.97
2018-03-02T11:46:13.099Z,19.77
2018-03-02T11:48:41.379Z,19.70
2018-03-02T11:51:09.753Z,24.17
2018-03-02T11:53:38.028Z,25.03
2018-03-02T11:56:05.591Z,22.23
2018-03-02T11:58:33.865Z,15.80
2018-03-02T12:01:01.376Z,23.37
2018-03-02T12:03:29.142Z,24.23
2018-03-02T12:05:56.638Z,23.37
2018-03-02T12:08:24.117Z,24.43
2018-03-02T12:10:52.356Z,20.50
2018-03-02T12:13:19.877Z,22.53
2018-03-02T12:15:47.613Z,21.90
2018-03-02T12:18:15.311Z,25.40
2018-03-02T12:20:42.881Z,24.80
2018-03-02T12:23:10.348Z,24.73
2018-03-02T12:25:38.861Z,22.07
2018-03-02T12:28:06.352Z,26.83
2018-03-02T12:30:34.656Z,24.90
2018-03-02T12:33:02.986Z,20.10
2018-03-02T12:35:31.358Z,19.10
2018-03-02T12:37:58.961Z,23.43
2018-03-02T12:40:26.588Z,26.77
2018-03-02T12:42:54.126Z,24.83
2018-03-02T12:45:21.665Z,21.23
2018-03-02T12:47:49.168Z,26.97
2018-03-02T12:50:16.805Z,18.17
2018-03-02T12:52:44.320Z,26.80
2018-03-02T12:55:11.892Z,23.63
2018-03-02T12:57:39.464Z,25.10
2018-03-02T13:00:06.932Z,24.33
2018-03-02T13:02:34.607Z,26.87
2018-03-02T13:05:02.955Z,26.40
2018-03-02T13:07:30.431Z,21.00
2018-03-02T13:09:58.094Z,18.30
2018-03-02T13:12:25.574Z,22.07
2018-03-02T13:14:53.080Z,27.10
2018-03-02T13:17:20.661Z,27.57
2018-03-02T13:19:48.258Z,26.40
2018-03-02T13:22:27.443Z,24.57
2018-03-02T13:24:54.993Z,24.50
2018-03-02T13:27:34.063Z,21.47
2018-03-02T13:30:01.737Z,23.13
2018-03-02T13:32:29.227Z,25.23
2018-03-02T13:35:06.674Z,21.07
2018-03-02T13:37:34.170Z,23.13
2018-03-02T13:40:14.299Z,26.90
2018-03-02T13:42:41.933Z,26.20
2018-03-02T13:45:09.390Z,25.93
2018-03-02T13:50:36.788Z,25.57
2018-03-02T13:53:04.272Z,24.77
2018-03-02T13:55:32.609Z,25.20
2018-03-02T13:58:03.717Z,22.90
2018-03-02T14:00:31.268Z,26.17
2018-03-02T14:03:10.891Z,26.00
2018-03-02T14:05:39.125Z,26.17
2018-03-02T14:08:06.623Z,25.47
2018-03-02T14:10:35.111Z,22.97
2018-03-02T14:13:03.369Z,21.77
2018-03-02T14:15:31.092Z,24.43
2018-03-02T14:17:58.609Z,20.83
2018-03-02T14:20:26.861Z,23.97
2018-03-02T14:22:54.583Z,25.07
2018-03-02T14:25:22.051Z,24.87
2018-03-02T14:27:49.518Z,18.00
2018-03-02T14:30:17.235Z,19.33
2018-03-02T14:32:45.498Z,25.37
2018-03-02T14:35:13.097Z,23.67
2018-03-02T14:37:40.571Z,24.13
2018-03-02T14:40:08.041Z,23.00
2018-03-02T14:42:35.586Z,23.00
2018-03-02T14:45:03.059Z,22.80
2018-03-02T14:47:30.650Z,21.13
2018-03-02T14:49:58.178Z,15.07
2018-03-02T14:52:26.450Z,19.97
2018-03-02T14:54:53.997Z,23.73
2018-03-02T14:57:21.480Z,24.27
2018-03-02T14:59:49.859Z,25.23
2018-03-02T15:02:17.388Z,21.40
2018-03-02T15:04:44.900Z,25.83
2018-03-02T15:07:12.372Z,25.63
2018-03-02T15:09:41.014Z,19.43
2018-03-02T15:12:08.648Z,25.07
2018-03-02T15:14:36.160Z,25.90
2018-03-02T15:17:03.681Z,24.63
2018-03-02T15:19:31.151Z,24.90
2018-03-02T15:21:58.726Z,25.67
2018-03-02T15:24:26.242Z,23.30
2018-03-02T15:26:54.015Z,19.17
2018-03-02T15:29:21.566Z,28.57
2018-03-02T15:31:49.232Z,26.90
2018-03-02T15:34:16.737Z,28.60
2018-03-02T15:36:44.302Z,26.20
2018-03-02T15:39:11.805Z,26.80
2018-03-02T15:41:39.332Z,26.17
2018-03-02T15:44:07.706Z,28.00
2018-03-02T15:46:35.346Z,25.90
2018-03-02T15:49:02.821Z,27.07
2018-03-02T15:51:30.413Z,30.60
2018-03-02T15:53:57.925Z,28.17
2018-03-02T15:56:25.756Z,28.27
2018-03-02T15:58:53.232Z,29.20
2018-03-02T16:01:20.919Z,27.40
2018-03-02T16:03:49.237Z,25.83
2018-03-02T16:06:17.484Z,30.07
2018-03-02T16:08:45.813Z,29.93
2018-03-02T16:11:13.459Z,26.40
2018-03-02T16:13:40.929Z,27.77
2018-03-02T16:16:08.446Z,28.00
2018-03-02T16:18:36.777Z,26.43
2018-03-02T16:21:04.244Z,28.60
2018-03-02T16:23:31.915Z,21.67
2018-03-02T16:25:59.390Z,24.63
2018-03-02T16:28:26.884Z,24.73
2018-03-02T16:30:54.456Z,28.40
2018-03-02T16:33:21.946Z,27.20
2018-03-02T16:35:49.555Z,29.87
2018-03-02T16:38:17.216Z,25.73
2018-03-02T16:40:45.561Z,25.37
2018-03-02T16:43:13.246Z,28.20
2018-03-02T16:45:41.536Z,30.30
2018-03-02T16:48:09.789Z,28.77
2018-03-02T16:50:37.450Z,27.77
2018-03-02T16:53:04.953Z,30.27
2018-03-02T16:55:32.621Z,31.10
2018-03-02T16:58:00.147Z,29.93
2018-03-02T17:00:28.462Z,24.47
2018-03-02T17:02:56.789Z,32.40
2018-03-02T17:05:24.631Z,29.30
2018-03-02T17:07:52.160Z,30.57
2018-03-02T17:10:19.701Z,29.57
2018-03-02T17:12:47.932Z,31.77
2018-03-02T17:15:15.510Z,32.90
2018-03-02T17:17:42.996Z,29.97
2018-03-02T17:20:11.253Z,26.83
2018-03-02T17:22:39.589Z,29.30
2018-03-02T17:25:07.318Z,27.10
2018-03-02T17:27:34.876Z,30.83
2018-03-02T17:30:03.537Z,26.17
2018-03-02T17:32:31.808Z,23.00
2018-03-02T17:34:59.291Z,33.80
2018-03-02T17:37:27.653Z,32.63
2018-03-02T17:39:55.895Z,34.10
2018-03-02T17:42:23.596Z,30.57
2018-03-02T17:44:51.930Z,30.87
2018-03-02T17:47:19.453Z,34.07
2018-03-02T17:49:46.995Z,33.93
2018-03-02T17:52:15.315Z,34.23
2018-03-02T17:54:42.839Z,32.67
2018-03-02T17:57:10.558Z,33.03
2018-03-02T17:59:38.067Z,29.37
2018-03-02T18:02:05.657Z,34.30
2018-03-02T18:04:33.122Z,33.30
2018-03-02T18:07:00.629Z,31.50
2018-03-02T18:09:28.588Z,34.20
2018-03-02T18:11:56.118Z,28.57
2018-03-02T18:14:23.732Z,33.73
2018-03-02T18:16:51.803Z,29.93
2018-03-02T18:19:20.384Z,30.80
2018-03-02T18:21:48.147Z,33.20
2018-03-02T18:24:16.420Z,34.50
2018-03-02T18:26:44.042Z,33.90
2018-03-02T18:31:50.932Z,31.77
2018-03-02T18:34:18.431Z,33.63
2018-03-02T18:36:46.706Z,32.43
2018-03-02T18:39:14.214Z,35.10
2018-03-02T18:41:41.770Z,29.40
2018-03-02T18:44:09.643Z,32.90
2018-03-02T18:46:37.159Z,28.80
2018-03-02T18:49:04.693Z,28.77
2018-03-02T18:51:32.171Z,34.13
2018-03-02T18:54:00.460Z,33.23
2018-03-02T18:56:28.726Z,31.87
2018-03-02T18:58:57.109Z,31.00
2018-03-02T19:01:25.385Z,31.60
2018-03-02T19:03:53.120Z,35.60
2018-03-02T19:06:20.803Z,28.43
2018-03-02T19:08:49.080Z,31.10
2018-03-02T19:11:17.352Z,35.20
2018-03-02T19:13:44.919Z,32.20
2018-03-02T19:16:13.162Z,32.30
2018-03-02T19:18:40.690Z,33.90
2018-03-02T19:21:08.215Z,29.00
2018-03-02T19:23:36.660Z,36.47
2018-03-02T19:26:04.210Z,32.77
2018-03-02T19:28:31.757Z,32.13
2018-03-02T19:30:59.491Z,32.50
2018-03-02T19:33:28.151Z,34.93
2018-03-02T19:35:56.558Z,32.70
2018-03-02T19:38:24.151Z,32.37
2018-03-02T19:40:51.782Z,31.33
2018-03-02T19:43:19.883Z,33.00
2018-03-02T19:45:47.562Z,31.53
2018-03-02T19:48:15.206Z,28.50
2018-03-02T19:50:42.814Z,32.73
2018-03-02T19:53:10.389Z,31.93
2018-03-02T19:55:38.017Z,31.07
2018-03-02T19:58:05.645Z,30.60
2018-03-02T20:00:33.284Z,30.30
2018-03-02T20:03:00.845Z,31.97
2018-03-02T20:05:29.121Z,31.57
2018-03-02T20:07:56.745Z,34.27
2018-03-02T20:10:24.542Z,31.70
2018-03-02T20:12:52.816Z,30.00
2018-03-02T20:15:20.869Z,31.77
2018-03-02T20:17:49.269Z,31.20
2018-03-02T20:20:17.539Z,32.73
2018-03-02T20:22:45.826Z,31.77
2018-03-02T20:25:13.571Z,31.13
2018-03-02T20:27:41.059Z,32.27
2018-03-02T20:30:08.580Z,31.23
2018-03-02T20:32:36.138Z,31.43
2018-03-02T20:35:03.748Z,31.73
2018-03-02T20:37:31.281Z,30.80
2018-03-02T20:39:59.647Z,31.93
2018-03-02T20:42:27.936Z,29.60
2018-03-02T20:44:55.460Z,30.67
2018-03-02T20:47:23.086Z,30.70
2018-03-02T20:49:50.631Z,33.47
2018-03-02T20:52:18.884Z,29.80
2018-03-02T20:54:46.431Z,31.60
2018-03-02T20:57:14.014Z,31.60
2018-03-02T20:59:41.621Z,30.60
2018-03-02T21:02:09.334Z,31.37
2018-03-02T21:04:37.096Z,33.20
2018-03-02T21:07:04.622Z,31.27
2018-03-02T21:09:32.125Z,33.43
2018-03-02T21:12:00.422Z,32.37
2018-03-02T21:14:27.910Z,32.93
2018-03-02T21:16:55.454Z,30.10
2018-03-02T21:19:23.863Z,31.47
2018-03-02T21:21:51.513Z,32.50
2018-03-02T21:24:19.217Z,32.07
2018-03-02T21:26:47.048Z,32.03
2018-03-02T21:29:14.903Z,32.63
2018-03-02T21:31:42.520Z,33.30
2018-03-02T21:34:10.412Z,31.43
2018-03-02T21:36:37.899Z,31.33
2018-03-02T21:39:05.614Z,31.20
2018-03-02T21:41:33.850Z,30.03
2018-03-02T21:44:01.680Z,32.37
2018-03-02T21:46:29.503Z,32.90
2018-03-02T21:48:57.065Z,34.73
2018-03-02T21:51:24.561Z,33.60
2018-03-02T21:53:52.048Z,30.93
2018-03-02T21:56:19.556Z,30.70
2018-03-02T21:58:47.821Z,33.93
2018-03-02T22:01:16.111Z,31.63
2018-03-02T22:03:44.387Z,32.80
2018-03-02T22:06:12.644Z,33.20
2018-03-02T22:08:40.998Z,32.53
2018-03-02T22:11:08.514Z,33.30
2018-03-02T22:13:36.771Z,33.70
2018-03-02T22:16:05.176Z,32.93
2018-03-02T22:18:32.925Z,31.17
2018-03-02T22:21:01.295Z,32.30
2018-03-02T22:23:28.885Z,33.10
2018-03-02T22:25:56.395Z,34.40
2018-03-02T22:28:23.888Z,32.10
2018-03-02T22:30:51.480Z,34.70
2018-03-02T22:33:19.057Z,33.33
2018-03-02T22:35:46.654Z,36.10
2018-03-02T22:38:14.921Z,32.83
2018-03-02T22:40:42.521Z,34.97
2018-03-02T22:43:10.121Z,33.07
2018-03-02T22:45:37.574Z,34.20
2018-03-02T22:48:05.083Z,36.73
2018-03-02T22:50:32.618Z,34.20
2018-03-02T22:53:00.096Z,35.00
2018-03-02T22:55:27.844Z,33.93
2018-03-02T22:57:56.244Z,35.80
2018-03-02T23:00:24.519Z,35.23
2018-03-02T23:02:52.120Z,35.10
2018-03-02T23:05:19.618Z,34.87
2018-03-02T23:07:48.115Z,35.50
2018-03-02T23:10:16.396Z,35.73
2018-03-02T23:12:43.880Z,37.10
2018-03-02T23:15:11.364Z,37.00
2018-03-02T23:17:38.926Z,36.07
2018-03-02T23:20:06.463Z,33.63
2018-03-02T23:22:34.100Z,35.13
2018-03-02T23:25:01.624Z,36.33
2018-03-02T23:27:29.183Z,34.63
2018-03-02T23:29:56.771Z,36.90
2018-03-02T23:32:25.301Z,36.40
2018-03-02T23:34:52.986Z,35.30
2018-03-02T23:37:21.243Z,37.50
2018-03-02T23:39:48.856Z,33.90
2018-03-02T23:42:16.408Z,35.50
2018-03-02T23:44:44.312Z,35.07
2018-03-02T23:47:11.778Z,35.97
2018-03-02T23:49:39.391Z,36.50
2018-03-02T23:52:07.773Z,37.60
2018-03-02T23:54:36.057Z,36.47
2018-03-02T23:57:04.237Z,36.47
2018-03-02T23:59:32.577Z,36.93
